createdAt,value
2022-09-14T00:01:34.182Z,68.13
2022-09-14T00:04:05.857Z,68.17
2022-09-14T00:06:33.966Z,68.13
2022-09-14T00:09:06.868Z,68.23
2022-09-14T00:11:37.357Z,68.28
2022-09-14T00:14:07.327Z,68.28
2022-09-14T00:16:38.604Z,67.90
2022-09-14T00:19:08.773Z,67.99
2022-09-14T00:21:38.407Z,66.93
2022-09-14T00:24:08.408Z,66.93
2022-09-14T00:26:36.743Z,67.22
2022-09-14T00:29:06.603Z,67.23
2022-09-14T00:31:38.217Z,67.11
2022-09-14T00:34:07.785Z,67.00
2022-09-14T00:36:40.347Z,66.97
2022-09-14T00:39:09.418Z,67.13
2022-09-14T00:41:44.476Z,67.36
2022-09-14T00:44:45.496Z,67.34
2022-09-14T00:47:17.393Z,67.65
2022-09-14T00:49:45.968Z,67.57
2022-09-14T00:52:20.631Z,67.07
2022-09-14T00:54:51.930Z,67.17
2022-09-14T00:57:21.172Z,67.22
2022-09-14T00:59:53.076Z,66.93
2022-09-14T01:02:24.749Z,67.07
2022-09-14T01:04:53.396Z,67.01
2022-09-14T01:07:33.381Z,67.27
2022-09-14T01:10:08.668Z,67.43
2022-09-14T01:12:48.685Z,67.42
2022-09-14T01:15:23.254Z,67.63
2022-09-14T01:18:08.307Z,67.82
2022-09-14T01:20:40.982Z,68.37
2022-09-14T01:23:14.898Z,68.44
2022-09-14T01:26:18.484Z,68.43
2022-09-14T01:28:54.489Z,67.84
2022-09-14T01:31:29.963Z,67.83
2022-09-14T01:34:06.344Z,67.86
2022-09-14T01:36:37.515Z,67.39
2022-09-14T01:39:05.528Z,67.42
2022-09-14T01:41:34.055Z,67.69
2022-09-14T01:44:10.555Z,67.65
2022-09-14T01:46:41.822Z,67.66
2022-09-14T01:49:15.021Z,67.36
2022-09-14T01:51:48.196Z,67.73
2022-09-14T01:54:22.178Z,68.07
2022-09-14T01:56:54.061Z,68.43
2022-09-14T01:59:26.241Z,68.09
2022-09-14T02:01:59.977Z,67.74
2022-09-14T02:04:33.184Z,67.67
2022-09-14T02:07:01.078Z,67.05
2022-09-14T02:09:29.224Z,66.97
2022-09-14T02:12:00.754Z,67.70
2022-09-14T02:14:30.756Z,68.17
2022-09-14T02:16:58.882Z,68.53
2022-09-14T02:19:31.287Z,68.33
2022-09-14T02:21:59.706Z,68.52
2022-09-14T02:24:29.276Z,68.24
2022-09-14T02:26:59.182Z,68.22
2022-09-14T02:29:27.053Z,68.09
2022-09-14T02:32:05.684Z,68.13
2022-09-14T02:34:43.035Z,68.59
2022-09-14T02:37:16.568Z,68.79
2022-09-14T02:39:51.685Z,67.99
2022-09-14T02:42:30.287Z,68.16
2022-09-14T02:45:04.881Z,68.25
2022-09-14T02:47:44.188Z,68.63
2022-09-14T02:50:21.424Z,68.35
2022-09-14T02:52:56.684Z,68.04
2022-09-14T02:55:29.339Z,67.56
2022-09-14T02:58:04.975Z,67.53
2022-09-14T03:00:36.616Z,67.62
2022-09-14T03:03:06.080Z,67.51
2022-09-14T03:05:34.777Z,67.13
2022-09-14T03:08:03.962Z,66.84
2022-09-14T03:10:32.409Z,66.77
2022-09-14T03:13:00.846Z,66.88
2022-09-14T03:15:29.449Z,66.52
2022-09-14T03:17:57.745Z,66.89
2022-09-14T03:20:28.966Z,67.04
2022-09-14T03:22:56.770Z,67.26
2022-09-14T03:25:24.579Z,67.26
2022-09-14T03:27:53.923Z,67.51
2022-09-14T03:30:22.149Z,67.63
2022-09-14T03:32:50.249Z,68.43
2022-09-14T03:35:19.223Z,69.06
2022-09-14T03:37:48.496Z,69.23
2022-09-14T03:40:21.603Z,69.76
2022-09-14T03:42:52.222Z,69.57
2022-09-14T03:45:21.465Z,68.94
2022-09-14T03:47:50.199Z,69.03
2022-09-14T03:50:19.841Z,69.38
2022-09-14T03:52:49.489Z,69.20
2022-09-14T03:55:19.174Z,69.26
2022-09-14T03:57:47.089Z,68.88
2022-09-14T04:00:15.750Z,68.92
2022-09-14T04:02:45.075Z,68.74
2022-09-14T04:05:13.293Z,68.96
2022-09-14T04:07:41.220Z,68.81
2022-09-14T04:10:11.548Z,69.12
2022-09-14T04:12:40.288Z,69.01
2022-09-14T04:15:09.200Z,68.34
2022-09-14T04:17:37.105Z,68.55
2022-09-14T04:20:05.393Z,68.55
2022-09-14T04:22:34.783Z,68.69
2022-09-14T04:25:02.864Z,68.44
2022-09-14T04:27:32.383Z,69.08
2022-09-14T04:30:00.287Z,68.54
2022-09-14T04:32:33.566Z,69.17
2022-09-14T04:35:02.368Z,68.50
2022-09-14T04:37:32.734Z,68.92
2022-09-14T04:40:00.733Z,68.43
2022-09-14T04:42:30.889Z,68.26
2022-09-14T04:45:00.256Z,67.99
2022-09-14T04:47:30.319Z,68.01
2022-09-14T04:49:58.237Z,68.31
2022-09-14T04:52:26.231Z,67.79
2022-09-14T04:54:54.099Z,67.77
2022-09-14T04:57:21.940Z,67.69
2022-09-14T04:59:49.809Z,67.51
2022-09-14T05:02:19.236Z,66.97
2022-09-14T05:04:47.290Z,67.02
2022-09-14T05:07:15.152Z,67.26
2022-09-14T05:09:43.624Z,67.30
2022-09-14T05:12:11.492Z,67.31
2022-09-14T05:14:39.294Z,66.86
2022-09-14T05:17:07.134Z,66.70
2022-09-14T05:19:36.463Z,66.87
2022-09-14T05:22:04.473Z,66.83
2022-09-14T05:24:32.472Z,66.77
2022-09-14T05:27:02.189Z,66.61
2022-09-14T05:29:31.915Z,66.85
2022-09-14T05:31:59.979Z,66.53
2022-09-14T05:34:27.911Z,66.55
2022-09-14T05:36:57.113Z,66.71
2022-09-14T05:39:24.970Z,66.41
2022-09-14T05:41:52.835Z,66.17
2022-09-14T05:44:20.633Z,66.16
2022-09-14T05:46:48.470Z,65.80
2022-09-14T05:49:16.320Z,65.55
2022-09-14T05:51:44.187Z,65.46
2022-09-14T05:54:13.394Z,65.49
2022-09-14T05:56:41.183Z,65.29
2022-09-14T05:59:10.717Z,65.37
2022-09-14T06:01:38.643Z,65.53
2022-09-14T06:04:06.483Z,65.76
2022-09-14T06:06:34.760Z,65.44
2022-09-14T06:09:02.631Z,65.13
2022-09-14T06:11:36.207Z,65.17
2022-09-14T06:14:04.333Z,65.62
2022-09-14T06:16:32.177Z,65.81
2022-09-14T06:19:00.940Z,65.99
2022-09-14T06:21:31.054Z,66.04
2022-09-14T06:23:58.927Z,66.19
2022-09-14T06:26:27.353Z,66.68
2022-09-14T06:28:56.622Z,66.72
2022-09-14T06:31:25.368Z,66.53
2022-09-14T06:33:53.896Z,66.42
2022-09-14T06:36:23.001Z,66.21
2022-09-14T06:38:51.192Z,66.08
2022-09-14T06:41:21.673Z,66.13
2022-09-14T06:43:50.609Z,65.84
2022-09-14T06:46:21.693Z,66.14
2022-09-14T06:48:51.190Z,66.58
2022-09-14T06:51:20.824Z,66.89
2022-09-14T06:53:49.974Z,67.04
2022-09-14T06:56:18.756Z,66.71
2022-09-14T06:58:46.994Z,66.77
2022-09-14T07:01:16.613Z,66.94
2022-09-14T07:03:46.934Z,66.42
2022-09-14T07:06:16.800Z,66.75
2022-09-14T07:08:45.269Z,67.02
2022-09-14T07:11:14.408Z,66.88
2022-09-14T07:13:42.417Z,66.63
2022-09-14T07:16:11.224Z,66.24
2022-09-14T07:18:39.673Z,66.17
2022-09-14T07:21:11.657Z,66.03
2022-09-14T07:23:41.414Z,65.97
2022-09-14T07:26:11.781Z,66.13
2022-09-14T07:28:40.309Z,66.87
2022-09-14T07:31:17.021Z,67.23
2022-09-14T07:33:44.950Z,67.01
2022-09-14T07:36:15.288Z,66.88
2022-09-14T07:38:58.444Z,66.39
2022-09-14T07:41:28.608Z,65.72
2022-09-14T07:44:00.195Z,65.61
2022-09-14T07:46:29.387Z,65.19
2022-09-14T07:48:58.409Z,64.66
2022-09-14T07:51:28.941Z,64.55
2022-09-14T07:53:57.255Z,64.68
2022-09-14T07:56:25.923Z,64.86
2022-09-14T07:59:07.133Z,65.38
2022-09-14T08:01:44.093Z,65.51
2022-09-14T08:04:12.050Z,65.57
2022-09-14T08:06:42.260Z,65.57
2022-09-14T08:09:10.121Z,65.62
2022-09-14T08:11:38.563Z,65.32
2022-09-14T08:14:09.750Z,65.38
2022-09-14T08:16:38.671Z,65.18
2022-09-14T08:19:10.727Z,65.55
2022-09-14T08:21:42.789Z,65.57
2022-09-14T08:24:17.565Z,65.86
2022-09-14T08:26:45.986Z,66.55
2022-09-14T08:29:14.217Z,66.78
2022-09-14T08:31:43.269Z,66.82
2022-09-14T08:34:11.104Z,66.69
2022-09-14T08:36:40.243Z,66.89
2022-09-14T08:39:10.360Z,67.33
2022-09-14T08:41:45.637Z,67.62
2022-09-14T08:44:19.541Z,67.68
2022-09-14T08:46:50.041Z,67.79
2022-09-14T08:49:26.015Z,68.17
2022-09-14T08:51:53.822Z,68.32
2022-09-14T08:54:21.593Z,68.55
2022-09-14T08:56:56.571Z,68.27
2022-09-14T08:59:37.219Z,68.09
2022-09-14T09:02:37.201Z,68.19
2022-09-14T09:05:22.220Z,67.67
2022-09-14T09:07:58.417Z,67.46
2022-09-14T09:10:28.185Z,67.25
2022-09-14T09:13:00.425Z,67.07
2022-09-14T09:15:32.442Z,66.92
2022-09-14T09:18:03.230Z,66.94
2022-09-14T09:20:35.354Z,66.96
2022-09-14T09:23:12.573Z,66.91
2022-09-14T09:25:56.184Z,67.00
2022-09-14T09:28:27.159Z,67.11
2022-09-14T09:30:58.117Z,67.33
2022-09-14T09:33:37.639Z,67.90
2022-09-14T09:36:15.330Z,67.34
2022-09-14T09:38:43.568Z,67.11
2022-09-14T09:41:17.231Z,66.96
2022-09-14T09:44:01.428Z,66.69
2022-09-14T09:46:31.565Z,66.48
2022-09-14T09:49:00.429Z,66.79
2022-09-14T09:51:30.610Z,67.11
2022-09-14T09:54:02.579Z,67.21
2022-09-14T09:56:33.892Z,67.62
2022-09-14T09:59:03.410Z,67.34
2022-09-14T10:01:33.800Z,67.13
2022-09-14T10:04:05.996Z,67.06
2022-09-14T10:06:42.603Z,67.00
2022-09-14T10:09:16.124Z,66.63
2022-09-14T10:11:45.683Z,66.78
2022-09-14T10:14:31.232Z,66.85
2022-09-14T10:17:08.203Z,66.68
2022-09-14T10:19:36.128Z,66.36
2022-09-14T10:22:17.536Z,66.11
2022-09-14T10:24:55.134Z,65.60
2022-09-14T10:27:37.826Z,65.59
2022-09-14T10:30:14.776Z,65.87
2022-09-14T10:32:46.276Z,66.46
2022-09-14T10:35:15.447Z,66.46
2022-09-14T10:38:00.637Z,67.13
2022-09-14T10:40:34.127Z,68.28
2022-09-14T10:43:12.348Z,69.24
2022-09-14T10:45:50.316Z,70.45
2022-09-14T10:48:40.949Z,71.17
2022-09-14T10:51:30.941Z,70.83
2022-09-14T10:54:06.741Z,70.47
2022-09-14T10:56:43.625Z,70.41
2022-09-14T10:59:27.052Z,70.01
2022-09-14T11:02:40.110Z,69.54
2022-09-14T11:05:13.892Z,68.80
2022-09-14T11:07:50.689Z,68.78
2022-09-14T11:10:28.932Z,69.06
2022-09-14T11:13:13.978Z,68.77
2022-09-14T11:15:49.025Z,68.86
2022-09-14T11:18:25.640Z,68.75
2022-09-14T11:21:05.523Z,68.12
2022-09-14T11:23:44.962Z,68.07
2022-09-14T11:26:16.223Z,67.80
2022-09-14T11:28:48.661Z,67.40
2022-09-14T11:31:22.987Z,66.76
2022-09-14T11:33:56.892Z,66.81
2022-09-14T11:36:29.402Z,66.76
2022-09-14T11:39:06.925Z,66.93
2022-09-14T11:41:43.489Z,67.13
2022-09-14T11:44:16.836Z,67.41
2022-09-14T11:46:49.365Z,67.60
2022-09-14T11:49:26.120Z,67.93
2022-09-14T11:51:59.079Z,68.18
2022-09-14T11:54:26.978Z,68.33
2022-09-14T11:56:59.382Z,68.26
2022-09-14T11:59:37.673Z,68.09
2022-09-14T12:02:54.414Z,67.45
2022-09-14T12:05:32.227Z,67.88
2022-09-14T12:08:02.960Z,68.12
2022-09-14T12:10:31.656Z,68.25
2022-09-14T12:13:20.001Z,68.68
2022-09-14T12:15:48.089Z,69.09
2022-09-14T12:18:23.128Z,69.49
2022-09-14T12:21:02.585Z,69.94
2022-09-14T12:23:33.813Z,70.86
2022-09-14T12:26:15.848Z,71.36
2022-09-14T12:28:49.018Z,71.51
2022-09-14T12:31:40.265Z,71.77
2022-09-14T12:34:20.599Z,71.58
2022-09-14T12:37:28.170Z,71.76
2022-09-14T12:40:36.207Z,71.75
2022-09-14T12:43:49.550Z,71.91
2022-09-14T12:46:41.769Z,72.00
2022-09-14T12:49:39.594Z,71.78
2022-09-14T12:52:34.047Z,71.73
2022-09-14T12:55:16.104Z,71.87
2022-09-14T12:57:50.039Z,71.82
2022-09-14T13:00:20.606Z,71.73
2022-09-14T13:03:15.909Z,70.67
2022-09-14T13:05:46.078Z,70.06
2022-09-14T13:08:22.060Z,68.79
2022-09-14T13:10:52.738Z,68.16
2022-09-14T13:13:24.864Z,68.29
2022-09-14T13:15:56.911Z,67.72
2022-09-14T13:18:30.753Z,67.83
2022-09-14T13:21:00.796Z,69.01
2022-09-14T13:23:33.594Z,69.48
2022-09-14T13:26:09.136Z,69.66
2022-09-14T13:28:37.083Z,68.72
2022-09-14T13:31:06.450Z,69.00
2022-09-14T13:33:34.329Z,69.47
2022-09-14T13:36:04.620Z,70.17
2022-09-14T13:38:37.525Z,70.18
2022-09-14T13:41:08.125Z,70.31
2022-09-14T13:43:36.375Z,70.87
2022-09-14T13:46:08.047Z,71.06
2022-09-14T13:48:40.030Z,71.17
2022-09-14T13:51:09.250Z,70.63
2022-09-14T13:53:41.487Z,70.79
2022-09-14T13:56:20.997Z,70.64
2022-09-14T13:58:50.781Z,70.80
2022-09-14T14:01:27.726Z,70.43
2022-09-14T14:03:55.712Z,70.80
2022-09-14T14:06:27.036Z,71.22
2022-09-14T14:09:02.968Z,71.66
2022-09-14T14:11:35.623Z,71.81
2022-09-14T14:14:19.046Z,71.80
2022-09-14T14:17:20.075Z,71.57
2022-09-14T14:19:48.571Z,71.60
2022-09-14T14:22:20.418Z,71.48
2022-09-14T14:25:12.474Z,71.48
2022-09-14T14:27:43.973Z,71.46
2022-09-14T14:30:15.914Z,71.40
2022-09-14T14:32:43.977Z,70.76
2022-09-14T14:35:16.835Z,70.95
2022-09-14T14:37:44.965Z,70.80
2022-09-14T14:40:14.322Z,70.64
2022-09-14T14:42:43.286Z,70.53
2022-09-14T14:45:15.765Z,70.39
2022-09-14T14:47:43.618Z,70.13
2022-09-14T14:50:15.723Z,69.62
2022-09-14T14:52:43.661Z,69.20
2022-09-14T14:55:11.966Z,69.09
2022-09-14T14:57:41.185Z,69.19
2022-09-14T15:00:15.348Z,69.28
2022-09-14T15:02:43.690Z,69.78
2022-09-14T15:05:12.629Z,70.10
2022-09-14T15:07:40.873Z,70.35
2022-09-14T15:10:12.143Z,70.66
2022-09-14T15:12:41.380Z,71.04
2022-09-14T15:15:13.317Z,70.95
2022-09-14T15:17:41.145Z,70.75
2022-09-14T15:20:10.001Z,70.71
2022-09-14T15:22:38.411Z,70.50
2022-09-14T15:25:07.432Z,70.31
2022-09-14T15:27:35.488Z,70.57
2022-09-14T15:30:06.798Z,70.64
2022-09-14T15:32:34.867Z,70.69
2022-09-14T15:35:03.070Z,70.78
2022-09-14T15:37:31.005Z,70.75
2022-09-14T15:39:58.903Z,70.73
2022-09-14T15:42:27.178Z,70.41
2022-09-14T15:44:55.038Z,70.48
2022-09-14T15:47:24.187Z,70.90
2022-09-14T15:49:52.929Z,70.77
2022-09-14T15:52:21.039Z,70.87
2022-09-14T15:54:49.294Z,71.06
2022-09-14T15:57:17.388Z,71.21
2022-09-14T15:59:45.170Z,71.07
2022-09-14T16:02:13.057Z,71.16
2022-09-14T16:04:42.299Z,70.97
2022-09-14T16:07:10.610Z,71.30
2022-09-14T16:09:39.489Z,71.48
2022-09-14T16:12:08.163Z,71.82
2022-09-14T16:14:36.249Z,71.80
2022-09-14T16:17:05.068Z,71.86
2022-09-14T16:19:33.264Z,72.15
2022-09-14T16:22:02.556Z,72.49
2022-09-14T16:24:31.000Z,72.48
2022-09-14T16:26:59.132Z,72.66
2022-09-14T16:29:27.368Z,72.71
2022-09-14T16:31:55.564Z,73.07
2022-09-14T16:34:24.833Z,73.52
2022-09-14T16:36:53.274Z,73.32
2022-09-14T16:39:25.086Z,73.21
2022-09-14T16:41:53.970Z,73.39
2022-09-14T16:44:25.552Z,73.48
2022-09-14T16:46:54.663Z,74.00
2022-09-14T16:49:27.218Z,74.14
2022-09-14T16:51:56.250Z,74.38
2022-09-14T16:54:27.153Z,74.52
2022-09-14T16:56:56.952Z,74.45
2022-09-14T16:59:25.562Z,74.65
2022-09-14T17:01:54.858Z,74.62
2022-09-14T17:04:24.344Z,75.10
2022-09-14T17:06:53.181Z,75.61
2022-09-14T17:09:23.467Z,76.28
2022-09-14T17:11:54.025Z,76.80
2022-09-14T17:14:23.491Z,77.17
2022-09-14T17:16:51.383Z,77.55
2022-09-14T17:19:19.293Z,77.45
2022-09-14T17:21:48.224Z,77.45
2022-09-14T17:24:18.688Z,77.47
2022-09-14T17:26:47.686Z,77.49
2022-09-14T17:29:17.563Z,77.53
2022-09-14T17:31:46.566Z,77.76
2022-09-14T17:34:16.941Z,77.99
2022-09-14T17:36:45.536Z,78.14
2022-09-14T17:39:15.449Z,78.42
2022-09-14T17:41:44.253Z,78.47
2022-09-14T17:44:15.231Z,78.80
2022-09-14T17:46:51.984Z,78.90
2022-09-14T17:49:21.464Z,79.03
2022-09-14T17:51:49.454Z,79.10
2022-09-14T17:54:17.709Z,79.38
2022-09-14T17:56:45.765Z,79.38
2022-09-14T17:59:15.634Z,79.65
2022-09-14T18:01:45.023Z,79.76
2022-09-14T18:04:15.167Z,79.90
2022-09-14T18:06:44.776Z,79.88
2022-09-14T18:09:15.651Z,80.05
2022-09-14T18:11:44.589Z,80.61
2022-09-14T18:14:14.383Z,80.53
2022-09-14T18:16:43.376Z,80.97
2022-09-14T18:19:12.889Z,81.40
2022-09-14T18:21:41.351Z,81.56
2022-09-14T18:24:10.634Z,81.44
2022-09-14T18:26:39.015Z,81.51
2022-09-14T18:29:07.041Z,81.23
2022-09-14T18:31:35.056Z,81.45
2022-09-14T18:34:03.173Z,82.23
2022-09-14T18:36:32.502Z,82.36
2022-09-14T18:39:00.563Z,82.40
2022-09-14T18:41:31.200Z,82.25
2022-09-14T18:43:59.333Z,82.47
2022-09-14T18:46:28.666Z,82.73
2022-09-14T18:48:58.331Z,82.77
2022-09-14T18:51:26.891Z,82.84
2022-09-14T18:54:01.085Z,83.11
2022-09-14T18:56:29.701Z,83.19
2022-09-14T18:58:57.761Z,83.00
2022-09-14T19:01:26.471Z,83.14
2022-09-14T19:03:55.991Z,83.13
2022-09-14T19:06:24.141Z,82.90
2022-09-14T19:08:52.635Z,83.04
2022-09-14T19:11:23.706Z,82.87
2022-09-14T19:13:56.892Z,82.83
2022-09-14T19:16:25.385Z,82.84
2022-09-14T19:18:53.463Z,82.90
2022-09-14T19:21:24.445Z,82.95
2022-09-14T19:24:00.176Z,83.05
2022-09-14T19:26:31.981Z,82.97
2022-09-14T19:29:01.145Z,83.10
2022-09-14T19:31:30.526Z,83.06
2022-09-14T19:33:58.611Z,83.14
2022-09-14T19:36:27.318Z,83.48
2022-09-14T19:38:57.265Z,83.64
2022-09-14T19:41:25.615Z,84.02
2022-09-14T19:43:55.037Z,84.49
2022-09-14T19:46:24.304Z,84.90
2022-09-14T19:48:52.733Z,85.09
2022-09-14T19:51:22.722Z,85.61
2022-09-14T19:53:52.349Z,85.67
2022-09-14T19:56:21.834Z,85.92
2022-09-14T19:58:52.188Z,85.77
2022-09-14T20:01:23.709Z,86.02
2022-09-14T20:03:51.981Z,85.70
2022-09-14T20:06:23.464Z,85.79
2022-09-14T20:08:53.187Z,85.49
2022-09-14T20:11:23.411Z,85.02
2022-09-14T20:13:54.679Z,84.91
2022-09-14T20:16:26.502Z,84.85
2022-09-14T20:18:54.932Z,84.64
2022-09-14T20:21:25.064Z,84.54
2022-09-14T20:24:15.127Z,84.31
2022-09-14T20:26:44.628Z,84.23
2022-09-14T20:29:12.597Z,84.14
2022-09-14T20:31:42.042Z,84.38
2022-09-14T20:34:10.290Z,84.45
2022-09-14T20:36:38.743Z,84.49
2022-09-14T20:39:06.766Z,84.75
2022-09-14T20:41:35.976Z,84.57
2022-09-14T20:44:05.109Z,84.20
2022-09-14T20:46:36.147Z,84.46
2022-09-14T20:49:07.621Z,84.61
2022-09-14T20:51:36.061Z,85.06
2022-09-14T20:54:04.065Z,85.33
2022-09-14T20:56:33.643Z,85.77
2022-09-14T20:59:03.104Z,86.17
2022-09-14T21:01:33.443Z,86.48
2022-09-14T21:04:04.380Z,86.05
2022-09-14T21:06:35.922Z,86.19
2022-09-14T21:09:03.773Z,86.86
2022-09-14T21:11:31.701Z,86.90
2022-09-14T21:13:59.618Z,87.15
2022-09-14T21:16:29.822Z,87.75
2022-09-14T21:18:59.063Z,88.29
2022-09-14T21:21:27.740Z,88.49
2022-09-14T21:23:58.021Z,88.99
2022-09-14T21:26:27.228Z,89.75
2022-09-14T21:28:57.184Z,90.04
2022-09-14T21:31:26.279Z,90.25
2022-09-14T21:33:55.732Z,90.92
2022-09-14T21:36:27.516Z,91.23
2022-09-14T21:38:59.628Z,90.69
2022-09-14T21:41:29.062Z,90.44
2022-09-14T21:43:57.967Z,91.16
2022-09-14T21:46:26.945Z,91.88
2022-09-14T21:48:56.003Z,92.33
2022-09-14T21:51:26.507Z,92.85
2022-09-14T21:53:55.816Z,92.56
2022-09-14T21:56:27.084Z,92.62
2022-09-14T21:58:56.811Z,92.74
2022-09-14T22:01:25.720Z,92.46
2022-09-14T22:03:55.011Z,92.74
2022-09-14T22:06:28.277Z,92.30
2022-09-14T22:08:59.804Z,92.72
2022-09-14T22:11:31.075Z,92.61
2022-09-14T22:14:00.786Z,92.53
2022-09-14T22:16:30.146Z,92.36
2022-09-14T22:18:59.856Z,92.39
2022-09-14T22:21:30.291Z,92.12
2022-09-14T22:24:00.516Z,92.10
2022-09-14T22:26:31.402Z,91.86
2022-09-14T22:29:00.090Z,91.64
2022-09-14T22:31:29.609Z,91.54
2022-09-14T22:33:58.750Z,91.56
2022-09-14T22:36:27.101Z,91.61
2022-09-14T22:38:56.581Z,91.51
2022-09-14T22:41:26.091Z,91.31
2022-09-14T22:43:56.068Z,90.45
2022-09-14T22:46:25.129Z,90.23
2022-09-14T22:48:53.644Z,90.12
2022-09-14T22:51:26.852Z,90.24
2022-09-14T22:53:56.103Z,90.92
2022-09-14T22:56:25.716Z,91.86
2022-09-14T22:58:55.129Z,91.98
2022-09-14T23:01:25.852Z,92.45
2022-09-14T23:03:57.082Z,92.59
2022-09-14T23:06:29.128Z,92.77
2022-09-14T23:08:57.196Z,93.13
2022-09-14T23:11:25.449Z,93.66
2022-09-14T23:13:53.371Z,93.69
2022-09-14T23:16:26.591Z,93.66
2022-09-14T23:18:57.639Z,93.50
2022-09-14T23:21:26.043Z,93.73
2022-09-14T23:23:55.349Z,93.91
2022-09-14T23:26:23.929Z,93.81
2022-09-14T23:28:53.415Z,93.72
2022-09-14T23:31:23.258Z,93.86
2022-09-14T23:33:52.033Z,93.99
2022-09-14T23:36:22.031Z,94.11
2022-09-14T23:38:50.336Z,94.23
2022-09-14T23:41:19.554Z,94.41
2022-09-14T23:43:47.597Z,94.00
2022-09-14T23:46:16.119Z,93.60
2022-09-14T23:48:46.215Z,94.26
2022-09-14T23:51:14.386Z,94.33
2022-09-14T23:53:42.693Z,94.00
2022-09-14T23:56:11.631Z,93.91
2022-09-14T23:58:41.271Z,93.77
